Eagle Turin — 9VMG6 — position and weather

sailwx.info

Track history (hours):
 
Tides and Currents Weather Stations Pressure Air Temp Water Temp Dewpoint Dewpoint Depression Visibility Wind Speed Wind Dir Waves Ship Positions

Eagle Turin

Last reported at 2016-Dec-03 18:32 UTC. Time now 2016-Dec-04 08:09 UTC.
Position N 29°21' W 094°44'.

Length 246 m; draft 8.5 m.

Type: Ship. MMSI: 565770000.

Date/timePositionNaut miles runAvg speedWind from/ knotsBaromVisibWave heightAir tempDewpointWater temp
2016-Dec-03 18:32N 29°21' W 094°44'1111.4
2016-Dec-03 17:33N 29°29' W 094°52'1111.1
2016-Dec-03 16:33N 29°39' W 094°58'8 8.3
2016-Dec-03 15:33N 29°45' W 095°04'2 0.1
2016-Dec-02 22:27N 29°45' W 095°06'0 0.0
2016-Dec-02 21:33N 29°45' W 095°06'0 0.0
2016-Dec-02 20:27N 29°45' W 095°06'0 0.0
2016-Dec-02 19:15N 29°45' W 095°06'0 0.0
2016-Dec-02 18:30N 29°45' W 095°06'0 0.0
2016-Dec-02 17:33N 29°45' W 095°06'0 0.0
2016-Dec-02 16:33N 29°45' W 095°06'0 0.0
2016-Dec-02 15:12N 29°45' W 095°06'0 0.0
2016-Dec-02 14:33N 29°45' W 095°06'1 0.0
2016-Dec-01 18:26N 29°46' W 095°05'6 0.2
2016-Nov-30 14:31N 29°42' W 095°00'6 5.1
2016-Nov-30 13:23N 29°44' W 095°06'1 0.0
2016-Nov-28 20:33N 29°44' W 095°08'4 3.6
2016-Nov-28 19:33N 29°44' W 095°04'6 6.4
2016-Nov-28 18:33N 29°40' W 094°58'9 9.2
2016-Nov-28 17:33N 29°32' W 094°53'9 9.4
2016-Nov-28 16:34N 29°23' W 094°49'80 2.9
2016-Nov-27 13:22N 28°29' W 093°41'2 1.9
2016-Nov-27 12:33N 28°27' W 093°41'  
Track history (hours):
 
Tides and Currents Weather Stations Pressure Air Temp Water Temp Dewpoint Dewpoint Depression Visibility Wind Speed Wind Dir Waves Ship Positions

Eagle Turin

Last reported at 2016-Dec-03 18:32 UTC. Time now 2016-Dec-04 08:09 UTC.
Position N 29°21' W 094°44'.

Length 246 m; draft 8.5 m.

Type: Ship. MMSI: 565770000.

Date/timePositionNaut miles runAvg speedWind from/ knotsBaromVisibWave heightAir tempDewpointWater temp
2016-Dec-03 18:32N 29°21' W 094°44'1111.4
2016-Dec-03 17:33N 29°29' W 094°52'1111.1
2016-Dec-03 16:33N 29°39' W 094°58'8 8.3
2016-Dec-03 15:33N 29°45' W 095°04'2 0.1
2016-Dec-02 22:27N 29°45' W 095°06'0 0.0
2016-Dec-02 21:33N 29°45' W 095°06'0 0.0
2016-Dec-02 20:27N 29°45' W 095°06'0 0.0
2016-Dec-02 19:15N 29°45' W 095°06'0 0.0
2016-Dec-02 18:30N 29°45' W 095°06'0 0.0
2016-Dec-02 17:33N 29°45' W 095°06'0 0.0
2016-Dec-02 16:33N 29°45' W 095°06'0 0.0
2016-Dec-02 15:12N 29°45' W 095°06'0 0.0
2016-Dec-02 14:33N 29°45' W 095°06'1 0.0
2016-Dec-01 18:26N 29°46' W 095°05'6 0.2
2016-Nov-30 14:31N 29°42' W 095°00'6 5.1
2016-Nov-30 13:23N 29°44' W 095°06'1 0.0
2016-Nov-28 20:33N 29°44' W 095°08'4 3.6
2016-Nov-28 19:33N 29°44' W 095°04'6 6.4
2016-Nov-28 18:33N 29°40' W 094°58'9 9.2
2016-Nov-28 17:33N 29°32' W 094°53'9 9.4
2016-Nov-28 16:34N 29°23' W 094°49'80 2.9
2016-Nov-27 13:22N 28°29' W 093°41'2 1.9
2016-Nov-27 12:33N 28°27' W 093°41'  

Dump ship's entire track history